Time;durP1;ratioP1;P1;durP2;ratioP2;P2;SDS_P1;SDS_P2;PMS_P1;PMS_P2;Temp;Humidity;BMP_temperature;BMP_pressure;BME280_temperature;BME280_humidity;BME280_pressure;Samples;Min_cycle;Max_cycle;Signal;HPM_P1;HPM_P2
2023/07/12 00:00:45;;;;;;;2.65;2.03;;;18.50;99.90;;;;;;5006750;28;20032;-84
2023/07/12 00:03:12;;;;;;;3.08;2.20;;;18.50;99.90;;;;;;5007938;28;20060;-84
2023/07/12 00:05:38;;;;;;;2.85;2.10;;;18.40;99.90;;;;;;5024981;28;20037;-84
2023/07/12 00:08:04;;;;;;;3.22;2.40;;;18.40;99.90;;;;;;5052182;28;20084;-83
2023/07/12 00:10:36;;;;;;;4.10;2.40;;;18.40;99.90;;;;;;5002214;28;20584;-84
2023/07/12 00:13:02;;;;;;;5.07;2.30;;;18.40;99.90;;;;;;5051518;28;20432;-84
2023/07/12 00:15:31;;;;;;;2.70;1.90;;;18.40;99.90;;;;;;5011405;28;20049;-84
2023/07/12 00:17:57;;;;;;;3.20;2.13;;;18.30;99.90;;;;;;5021081;28;20045;-84
2023/07/12 00:20:33;;;;;;;3.10;2.03;;;18.30;99.90;;;;;;5016544;28;20056;-84
2023/07/12 00:22:59;;;;;;;3.42;2.00;;;18.20;99.90;;;;;;5054599;28;20124;-84
2023/07/12 00:25:30;;;;;;;3.40;1.90;;;18.20;99.90;;;;;;5021658;28;20069;-84
2023/07/12 00:27:55;;;;;;;2.97;2.40;;;18.20;99.90;;;;;;5023765;28;20924;-84
2023/07/12 00:30:25;;;;;;;2.90;2.10;;;18.20;99.90;;;;;;5022280;28;20038;-84
2023/07/12 00:32:53;;;;;;;3.40;2.00;;;18.20;99.90;;;;;;5004530;28;20044;-85
2023/07/12 00:35:24;;;;;;;2.97;2.00;;;18.20;99.90;;;;;;5021024;28;20046;-84
2023/07/12 00:37:55;;;;;;;2.92;2.20;;;18.20;99.90;;;;;;5027632;28;20282;-84
2023/07/12 00:40:30;;;;;;;2.92;2.08;;;18.20;99.90;;;;;;5045713;28;20346;-84
2023/07/12 00:43:21;;;;;;;3.53;1.80;;;18.20;99.90;;;;;;5053225;28;20159;-85
2023/07/12 00:45:50;;;;;;;2.92;2.10;;;18.10;99.90;;;;;;5033269;28;20072;-83
2023/07/12 00:48:16;;;;;;;2.83;2.50;;;18.10;99.90;;;;;;5020416;28;20492;-84
2023/07/12 00:50:42;;;;;;;3.95;1.95;;;18.10;99.90;;;;;;5033551;28;20500;-85
2023/07/12 00:53:20;;;;;;;3.08;2.08;;;18.10;99.90;;;;;;5025216;28;20063;-84
2023/07/12 00:55:57;;;;;;;2.85;2.40;;;18.10;99.90;;;;;;5018308;28;20099;-84
2023/07/12 00:58:25;;;;;;;3.72;2.50;;;18.10;99.90;;;;;;5021869;28;20515;-84
2023/07/12 01:00:52;;;;;;;3.72;2.25;;;18.10;99.90;;;;;;5022816;28;20042;-84
2023/07/12 01:03:20;;;;;;;4.40;2.35;;;18.00;99.90;;;;;;5021939;28;20115;-85
2023/07/12 01:05:46;;;;;;;3.17;2.10;;;18.00;99.90;;;;;;5047065;28;20060;-85
2023/07/12 01:08:14;;;;;;;3.65;2.42;;;18.10;99.90;;;;;;5026530;28;20085;-84
2023/07/12 01:10:40;;;;;;;4.30;2.38;;;18.00;99.90;;;;;;5020136;28;20590;-84
2023/07/12 01:13:07;;;;;;;4.50;2.33;;;18.00;99.90;;;;;;5035016;28;20162;-84
2023/07/12 01:15:35;;;;;;;3.10;2.10;;;18.00;99.90;;;;;;5026267;28;20445;-84
2023/07/12 01:18:01;;;;;;;3.50;2.25;;;18.10;99.90;;;;;;5050939;28;20222;-84
2023/07/12 01:20:33;;;;;;;3.28;2.35;;;18.00;99.90;;;;;;5022012;28;20112;-84
2023/07/12 01:22:58;;;;;;;4.82;2.60;;;18.10;99.90;;;;;;5053126;28;20551;-84
2023/07/12 01:25:35;;;;;;;4.40;2.70;;;18.00;99.90;;;;;;5019121;28;21301;-84
2023/07/12 01:28:00;;;;;;;5.00;2.20;;;18.10;99.90;;;;;;5036722;28;20072;-84
2023/07/12 01:30:27;;;;;;;3.47;2.30;;;18.10;99.90;;;;;;5040343;28;20132;-84
2023/07/12 01:32:53;;;;;;;3.35;2.50;;;18.10;99.90;;;;;;5008273;28;20041;-85
2023/07/12 01:35:19;;;;;;;5.05;2.63;;;18.00;99.90;;;;;;5023941;28;20373;-84
2023/07/12 01:37:45;;;;;;;4.28;2.45;;;18.00;99.90;;;;;;5026722;28;20127;-85
2023/07/12 01:40:11;;;;;;;4.38;2.58;;;18.10;99.90;;;;;;5005963;28;20065;-85
2023/07/12 01:42:37;;;;;;;4.75;2.58;;;18.00;99.90;;;;;;5008684;28;20164;-85
2023/07/12 01:45:03;;;;;;;4.20;2.80;;;18.00;99.90;;;;;;5001578;28;20153;-84
2023/07/12 01:47:30;;;;;;;3.60;2.70;;;18.00;99.90;;;;;;5035062;28;20042;-84
2023/07/12 01:49:56;;;;;;;4.22;2.78;;;18.00;99.90;;;;;;5008471;28;20041;-84
2023/07/12 01:52:28;;;;;;;4.18;2.50;;;17.90;99.90;;;;;;5023382;28;20041;-84
2023/07/12 01:54:53;;;;;;;4.35;2.72;;;17.90;99.90;;;;;;5017816;28;20042;-84
2023/07/12 01:57:19;;;;;;;4.68;2.83;;;17.90;99.90;;;;;;5018427;28;20484;-84
2023/07/12 01:59:45;;;;;;;5.63;3.10;;;17.90;99.90;;;;;;5026976;28;20207;-84
2023/07/12 02:02:10;;;;;;;6.20;3.17;;;17.90;99.90;;;;;;5018245;28;20042;-85
2023/07/12 02:04:39;;;;;;;4.50;2.95;;;17.80;99.90;;;;;;5025833;28;20041;-84
2023/07/12 02:07:04;;;;;;;7.55;3.63;;;17.80;99.90;;;;;;5009318;28;20528;-84
2023/07/12 02:09:35;;;;;;;5.45;3.50;;;17.80;99.90;;;;;;5036203;28;20071;-85
2023/07/12 02:12:02;;;;;;;5.75;3.20;;;17.70;99.90;;;;;;5012562;28;20113;-84
2023/07/12 02:14:27;;;;;;;3.88;2.83;;;17.70;99.90;;;;;;5053944;28;20664;-84
2023/07/12 02:16:55;;;;;;;6.38;3.25;;;17.70;99.90;;;;;;5017044;28;20067;-84
2023/07/12 02:19:21;;;;;;;5.78;3.70;;;17.70;99.90;;;;;;5017644;28;20041;-84
2023/07/12 02:21:50;;;;;;;5.78;3.78;;;17.70;99.90;;;;;;5017264;28;20379;-84
2023/07/12 02:24:16;;;;;;;8.07;4.15;;;17.70;99.90;;;;;;5034653;28;20045;-84
2023/07/12 02:26:43;;;;;;;5.15;3.70;;;17.70;99.90;;;;;;5031969;28;20352;-84
2023/07/12 02:29:09;;;;;;;8.07;4.00;;;17.60;99.90;;;;;;5007248;28;20045;-84
2023/07/12 02:31:35;;;;;;;6.95;4.18;;;17.60;99.90;;;;;;5025777;28;20146;-84
2023/07/12 02:34:00;;;;;;;5.40;3.45;;;17.60;99.90;;;;;;5000737;28;20192;-84
2023/07/12 02:36:26;;;;;;;8.40;4.25;;;17.60;99.90;;;;;;5023740;28;20038;-84
2023/07/12 02:38:51;;;;;;;6.93;4.15;;;17.60;99.90;;;;;;5034844;28;20033;-84
2023/07/12 02:41:18;;;;;;;8.15;4.15;;;17.60;99.90;;;;;;5030380;28;20136;-84
2023/07/12 02:43:46;;;;;;;11.23;4.90;;;17.60;99.90;;;;;;5025846;28;20044;-84
2023/07/12 02:46:12;;;;;;;11.50;4.47;;;17.60;99.90;;;;;;5024149;28;20203;-84
2023/07/12 02:48:38;;;;;;;9.52;4.25;;;17.60;99.90;;;;;;5011114;28;20067;-84
2023/07/12 02:51:04;;;;;;;8.35;3.97;;;17.60;99.90;;;;;;5022302;28;20053;-84
2023/07/12 02:53:29;;;;;;;7.00;3.78;;;17.50;99.90;;;;;;5037338;28;20033;-84
2023/07/12 02:55:55;;;;;;;5.10;3.60;;;17.50;99.90;;;;;;5019924;28;20042;-83
2023/07/12 02:58:21;;;;;;;6.53;3.78;;;17.50;99.90;;;;;;5026631;28;20559;-83
2023/07/12 03:00:47;;;;;;;6.60;4.28;;;17.50;99.90;;;;;;5016548;28;20060;-83
2023/07/12 03:03:13;;;;;;;8.30;4.20;;;17.50;99.90;;;;;;5022678;28;20117;-82
2023/07/12 03:05:40;;;;;;;9.18;4.68;;;17.50;99.90;;;;;;5022166;28;20500;-82
2023/07/12 03:08:07;;;;;;;7.43;4.65;;;17.50;99.90;;;;;;5030491;28;20064;-83
2023/07/12 03:10:36;;;;;;;8.38;4.03;;;17.50;99.90;;;;;;5025478;28;21060;-83
2023/07/12 03:13:01;;;;;;;9.55;5.00;;;17.40;99.90;;;;;;5030728;28;20033;-83
2023/07/12 03:15:27;;;;;;;7.43;4.40;;;17.50;99.90;;;;;;5029534;28;20041;-83
2023/07/12 03:17:53;;;;;;;8.18;4.28;;;17.40;99.90;;;;;;5021680;28;20091;-84
2023/07/12 03:20:19;;;;;;;9.18;4.20;;;17.40;99.90;;;;;;5028465;28;20029;-82
2023/07/12 03:22:44;;;;;;;8.18;4.57;;;17.40;99.90;;;;;;5030152;28;20366;-83
2023/07/12 03:25:10;;;;;;;9.82;4.85;;;17.30;99.90;;;;;;5025079;28;20469;-83
2023/07/12 03:27:36;;;;;;;10.07;4.72;;;17.30;99.90;;;;;;5036618;28;20034;-82
2023/07/12 03:30:01;;;;;;;11.98;4.80;;;17.20;99.90;;;;;;5018958;28;20420;-84
2023/07/12 03:32:27;;;;;;;9.20;4.45;;;17.20;99.90;;;;;;5052071;28;20064;-83
2023/07/12 03:34:52;;;;;;;9.00;4.57;;;17.20;99.90;;;;;;5021360;28;20116;-84
2023/07/12 03:37:18;;;;;;;10.43;4.50;;;17.20;99.90;;;;;;5020856;28;20036;-83
2023/07/12 03:39:44;;;;;;;7.07;4.28;;;17.20;99.90;;;;;;5054987;28;20065;-83
2023/07/12 03:42:10;;;;;;;10.02;4.43;;;17.20;99.90;;;;;;5022705;28;20526;-83
2023/07/12 03:44:36;;;;;;;12.15;4.63;;;17.20;99.90;;;;;;5024140;28;20104;-83
2023/07/12 03:47:02;;;;;;;18.60;5.95;;;17.20;99.90;;;;;;5019629;28;20084;-83
2023/07/12 03:49:28;;;;;;;10.85;5.00;;;17.20;99.90;;;;;;5016841;28;20065;-83
2023/07/12 03:51:54;;;;;;;9.05;4.38;;;17.20;99.90;;;;;;5035053;28;20049;-83
2023/07/12 03:54:21;;;;;;;9.38;4.22;;;17.10;99.90;;;;;;5025975;28;20037;-83
2023/07/12 03:56:47;;;;;;;12.65;4.43;;;17.10;99.90;;;;;;5018466;28;20042;-83
2023/07/12 03:59:13;;;;;;;10.25;4.40;;;17.10;99.90;;;;;;5012638;28;20060;-83
2023/07/12 04:01:39;;;;;;;10.00;4.32;;;17.10;99.90;;;;;;5021884;28;20524;-83
2023/07/12 04:04:05;;;;;;;8.93;4.38;;;17.10;99.90;;;;;;5009827;28;20384;-83
2023/07/12 04:06:31;;;;;;;12.45;4.35;;;17.10;99.90;;;;;;5027914;28;20507;-82
2023/07/12 04:08:57;;;;;;;10.48;4.57;;;17.10;99.90;;;;;;5025548;28;20148;-83
2023/07/12 04:11:26;;;;;;;13.20;4.65;;;17.10;99.90;;;;;;5001586;28;20050;-83
2023/07/12 04:13:53;;;;;;;10.68;4.80;;;17.10;99.90;;;;;;5027400;28;20033;-83
2023/07/12 04:16:19;;;;;;;18.77;4.30;;;17.10;99.90;;;;;;5010542;28;20124;-83
2023/07/12 04:18:45;;;;;;;9.98;4.55;;;17.10;99.90;;;;;;5006574;28;20112;-83
2023/07/12 04:21:11;;;;;;;10.60;4.30;;;17.10;99.90;;;;;;5023508;28;20037;-83
2023/07/12 04:23:37;;;;;;;7.60;4.72;;;17.20;99.90;;;;;;5037039;28;20038;-83
2023/07/12 04:26:04;;;;;;;12.77;4.65;;;17.20;99.90;;;;;;5020603;28;20056;-83
2023/07/12 04:28:31;;;;;;;10.48;4.38;;;17.20;99.90;;;;;;5024630;28;20073;-82
2023/07/12 04:31:03;;;;;;;10.05;4.93;;;17.20;99.90;;;;;;5001498;28;20513;-82
2023/07/12 04:33:29;;;;;;;11.65;4.43;;;17.20;99.90;;;;;;5008560;28;20308;-83
2023/07/12 04:35:55;;;;;;;14.05;5.00;;;17.30;99.90;;;;;;5027332;28;20400;-83
2023/07/12 04:38:20;;;;;;;10.65;4.55;;;17.30;99.90;;;;;;5016198;28;20036;-83
2023/07/12 04:43:35;;;;;;;10.68;4.40;;;17.30;99.90;;;;;;5113735;27;1237159;-83
2023/07/12 04:46:01;;;;;;;9.38;4.30;;;17.30;99.90;;;;;;5120505;27;20027;-83
2023/07/12 04:48:27;;;;;;;12.88;4.60;;;17.30;99.90;;;;;;5100806;27;20570;-82
2023/07/12 04:50:54;;;;;;;11.88;5.28;;;17.30;99.90;;;;;;5143414;27;20074;-83
2023/07/12 04:53:21;;;;;;;11.73;4.65;;;17.30;99.90;;;;;;5130732;27;20023;-83
2023/07/12 04:55:50;;;;;;;8.13;3.90;;;17.40;99.90;;;;;;5132694;27;20623;-83
2023/07/12 04:58:18;;;;;;;8.55;4.22;;;17.40;99.90;;;;;;5093782;27;20083;-83
2023/07/12 05:00:44;;;;;;;10.43;4.50;;;17.40;99.90;;;;;;5111934;27;20049;-83
2023/07/12 05:03:10;;;;;;;9.93;3.67;;;17.40;99.90;;;;;;5097396;27;20038;-83
2023/07/12 05:05:39;;;;;;;9.93;3.92;;;17.50;99.90;;;;;;5105635;27;20162;-83
2023/07/12 05:08:05;;;;;;;13.57;4.15;;;17.60;99.90;;;;;;5114207;27;20505;-83
2023/07/12 05:10:31;;;;;;;12.05;4.13;;;17.70;99.90;;;;;;5127137;27;20457;-83
2023/07/12 05:12:57;;;;;;;8.32;4.10;;;17.70;99.90;;;;;;5095016;27;20039;-83
2023/07/12 05:15:23;;;;;;;10.07;4.32;;;17.70;99.90;;;;;;5108618;27;20054;-82
2023/07/12 05:17:48;;;;;;;10.45;4.20;;;17.80;99.90;;;;;;5094842;27;20391;-83
2023/07/12 05:20:15;;;;;;;12.13;4.45;;;17.80;99.90;;;;;;5097239;27;20044;-83
2023/07/12 05:22:41;;;;;;;9.93;4.45;;;17.80;99.90;;;;;;5092401;27;20050;-82
2023/07/12 05:25:08;;;;;;;10.18;4.28;;;17.80;99.90;;;;;;5097921;27;20154;-83
2023/07/12 05:27:33;;;;;;;11.07;4.63;;;17.90;99.90;;;;;;5106955;27;20438;-82
2023/07/12 05:30:00;;;;;;;12.75;5.07;;;17.90;99.90;;;;;;5115626;27;20541;-82
2023/07/12 05:32:26;;;;;;;13.98;4.85;;;18.00;99.90;;;;;;5097307;27;20050;-83
2023/07/12 05:34:52;;;;;;;11.32;4.70;;;18.00;99.90;;;;;;5140274;27;20041;-82
2023/07/12 05:37:18;;;;;;;7.25;4.43;;;18.10;99.90;;;;;;5108146;27;20129;-83
2023/07/12 05:39:43;;;;;;;10.18;4.68;;;18.10;99.90;;;;;;5121048;27;20521;-82
2023/07/12 05:42:09;;;;;;;9.40;4.85;;;18.10;99.90;;;;;;5119172;27;20142;-83
2023/07/12 05:44:35;;;;;;;7.55;4.45;;;18.20;99.90;;;;;;5113999;27;20030;-82
2023/07/12 05:47:01;;;;;;;13.10;4.63;;;18.40;99.90;;;;;;5106758;27;20388;-82
2023/07/12 05:49:27;;;;;;;13.32;4.47;;;18.40;99.90;;;;;;5113764;27;20050;-83
2023/07/12 05:51:53;;;;;;;12.00;4.88;;;18.10;99.90;;;;;;5091976;27;20039;-82
2023/07/12 05:54:18;;;;;;;14.48;4.82;;;18.20;99.90;;;;;;5106129;27;20039;-82
2023/07/12 05:56:44;;;;;;;12.98;4.70;;;18.10;99.90;;;;;;5094815;27;20126;-83
2023/07/12 05:59:10;;;;;;;10.98;4.32;;;18.10;99.90;;;;;;5121302;27;20038;-83
2023/07/12 06:01:36;;;;;;;13.20;4.70;;;18.10;99.90;;;;;;5110611;27;20459;-83
2023/07/12 06:04:02;;;;;;;10.80;4.90;;;18.10;99.90;;;;;;5117151;27;20035;-83
2023/07/12 06:06:29;;;;;;;7.25;3.92;;;18.20;99.90;;;;;;5110507;27;20827;-83
2023/07/12 06:08:54;;;;;;;11.75;4.20;;;18.20;99.90;;;;;;5096640;27;20043;-83
2023/07/12 06:11:20;;;;;;;10.50;4.30;;;18.50;99.90;;;;;;5101135;27;20416;-83
2023/07/12 06:13:46;;;;;;;10.30;4.55;;;18.60;99.90;;;;;;5107346;27;20700;-83
2023/07/12 06:16:12;;;;;;;10.93;5.53;;;18.70;99.90;;;;;;5107373;27;20030;-83
2023/07/12 06:18:37;;;;;;;12.07;4.97;;;18.70;99.90;;;;;;5090739;27;20480;-83
2023/07/12 06:21:08;;;;;;;8.63;4.82;;;18.70;99.90;;;;;;5096075;27;20039;-83
2023/07/12 06:23:33;;;;;;;8.38;4.97;;;19.00;99.90;;;;;;5113809;27;20067;-83
2023/07/12 06:25:59;;;;;;;12.50;5.38;;;19.20;99.90;;;;;;5127667;27;20042;-83
2023/07/12 06:28:26;;;;;;;11.60;5.78;;;19.30;99.90;;;;;;5106328;27;20524;-83
2023/07/12 06:30:52;;;;;;;11.10;5.18;;;19.10;99.90;;;;;;5088710;27;20039;-83
2023/07/12 06:33:18;;;;;;;11.77;4.85;;;18.90;99.90;;;;;;5110796;27;20516;-83
2023/07/12 06:35:44;;;;;;;15.32;5.57;;;18.90;99.90;;;;;;5078495;27;20087;-83
2023/07/12 06:38:10;;;;;;;11.43;5.10;;;19.00;99.90;;;;;;5083222;27;20050;-83
2023/07/12 06:40:37;;;;;;;16.27;5.90;;;19.20;99.90;;;;;;5085483;27;20065;-83
2023/07/12 06:43:02;;;;;;;14.00;6.30;;;19.40;99.90;;;;;;5108983;27;20059;-83
2023/07/12 06:45:28;;;;;;;11.20;5.22;;;19.30;99.90;;;;;;5106970;27;20094;-83
2023/07/12 06:47:54;;;;;;;10.82;4.50;;;19.00;99.90;;;;;;5084765;27;20030;-83
2023/07/12 06:50:19;;;;;;;10.10;5.38;;;19.30;99.90;;;;;;5096194;27;20482;-83
2023/07/12 06:52:45;;;;;;;7.78;3.97;;;19.20;99.90;;;;;;5100260;27;20038;-83
2023/07/12 06:55:11;;;;;;;9.25;4.57;;;19.40;99.90;;;;;;5088776;27;20087;-83
2023/07/12 06:57:37;;;;;;;9.60;4.15;;;19.50;99.90;;;;;;5091992;27;20658;-83
2023/07/12 07:00:08;;;;;;;7.90;4.05;;;19.60;99.90;;;;;;5100312;27;20035;-84
2023/07/12 07:02:34;;;;;;;8.93;4.18;;;19.70;99.90;;;;;;5082395;27;20073;-84
2023/07/12 07:05:00;;;;;;;9.02;3.90;;;19.80;99.90;;;;;;5074631;27;20122;-83
2023/07/12 07:07:27;;;;;;;8.23;4.25;;;20.00;99.90;;;;;;5109259;27;20470;-84
2023/07/12 07:09:53;;;;;;;13.07;4.35;;;20.20;99.90;;;;;;5104185;27;20429;-83
2023/07/12 07:12:19;;;;;;;9.45;4.15;;;20.20;99.90;;;;;;5102999;27;20042;-84
2023/07/12 07:14:45;;;;;;;9.48;4.07;;;20.20;99.90;;;;;;5096096;27;20038;-83
2023/07/12 07:17:11;;;;;;;6.25;3.10;;;20.00;99.90;;;;;;5093902;27;20611;-84
2023/07/12 07:19:37;;;;;;;10.80;4.63;;;19.60;99.90;;;;;;5107773;27;20201;-84
2023/07/12 07:22:03;;;;;;;11.20;4.50;;;19.60;99.90;;;;;;5088141;27;20054;-83
2023/07/12 07:24:29;;;;;;;10.70;3.90;;;19.70;99.90;;;;;;5110021;27;20097;-84
2023/07/12 07:26:55;;;;;;;9.27;3.95;;;19.90;99.90;;;;;;5097718;27;20076;-84
2023/07/12 07:29:21;;;;;;;11.00;4.13;;;20.20;99.90;;;;;;5084994;27;20434;-84
2023/07/12 07:31:46;;;;;;;9.32;3.70;;;20.10;99.90;;;;;;5114065;27;20492;-84
2023/07/12 07:34:14;;;;;;;9.23;3.75;;;20.10;99.90;;;;;;5088476;27;20137;-84
2023/07/12 07:36:40;;;;;;;9.68;3.85;;;19.80;99.90;;;;;;5082618;27;20051;-83
2023/07/12 07:39:06;;;;;;;10.00;3.90;;;19.60;99.90;;;;;;5125593;27;20291;-84
2023/07/12 07:41:32;;;;;;;10.63;4.75;;;19.60;99.90;;;;;;5103959;27;20082;-83
2023/07/12 07:43:58;;;;;;;8.48;4.35;;;19.80;99.90;;;;;;5101280;27;20581;-84
2023/07/12 07:46:24;;;;;;;8.57;4.30;;;19.70;99.90;;;;;;5089638;27;20344;-84
2023/07/12 07:48:50;;;;;;;10.13;3.88;;;19.80;99.90;;;;;;5119650;27;20061;-84
2023/07/12 07:51:16;;;;;;;10.52;4.00;;;19.90;99.90;;;;;;5100362;27;20118;-84
2023/07/12 07:53:42;;;;;;;8.25;3.38;;;20.00;99.90;;;;;;5087052;27;20043;-84
2023/07/12 07:56:07;;;;;;;9.25;3.60;;;19.40;99.90;;;;;;5078703;27;20083;-84
2023/07/12 07:58:33;;;;;;;8.43;3.78;;;19.30;99.90;;;;;;5094107;27;20620;-83
2023/07/12 08:00:59;;;;;;;8.50;4.20;;;19.30;99.90;;;;;;5094945;27;20039;-83
2023/07/12 08:03:27;;;;;;;7.68;3.50;;;19.20;99.90;;;;;;5088094;27;20054;-83
2023/07/12 08:05:53;;;;;;;9.32;4.18;;;19.30;99.90;;;;;;5102227;27;20035;-83
2023/07/12 08:08:20;;;;;;;10.20;3.38;;;19.40;99.90;;;;;;5122618;27;20504;-83
2023/07/12 08:10:47;;;;;;;9.50;4.45;;;19.40;99.90;;;;;;5088174;27;20046;-83
2023/07/12 08:13:13;;;;;;;12.15;4.20;;;19.20;99.90;;;;;;5109115;27;20083;-83
2023/07/12 08:15:39;;;;;;;11.32;4.38;;;19.20;99.90;;;;;;5092529;27;20034;-83
2023/07/12 08:18:05;;;;;;;8.98;4.32;;;19.40;99.90;;;;;;5085060;27;20396;-83
2023/07/12 08:20:31;;;;;;;6.68;3.75;;;19.70;99.90;;;;;;5100401;27;20028;-83
2023/07/12 08:22:58;;;;;;;8.68;4.03;;;19.40;99.90;;;;;;5095778;27;20339;-83
2023/07/12 08:25:24;;;;;;;8.48;3.85;;;19.60;99.90;;;;;;5103945;27;20486;-83
2023/07/12 08:27:49;;;;;;;10.75;3.67;;;19.70;99.90;;;;;;5113069;27;20127;-83
2023/07/12 08:30:15;;;;;;;7.95;3.83;;;19.90;99.90;;;;;;5088269;27;20027;-83
2023/07/12 08:32:41;;;;;;;10.55;3.88;;;20.00;99.90;;;;;;5085992;27;20038;-83
2023/07/12 08:35:10;;;;;;;9.73;4.13;;;20.10;99.90;;;;;;5098754;27;20065;-83
2023/07/12 08:37:35;;;;;;;7.90;4.00;;;20.20;99.90;;;;;;5095364;27;20059;-83
2023/07/12 08:40:01;;;;;;;10.45;4.00;;;20.60;99.90;;;;;;5104156;27;20035;-83
2023/07/12 08:42:35;;;;;;;10.52;3.83;;;20.10;99.90;;;;;;5086987;27;20059;-83
2023/07/12 08:45:12;;;;;;;10.52;4.07;;;20.30;99.90;;;;;;5071719;27;20492;-83
2023/07/12 08:47:40;;;;;;;11.13;4.05;;;20.10;99.90;;;;;;5102560;27;20311;-83
2023/07/12 08:50:15;;;;;;;7.68;4.55;;;20.00;99.90;;;;;;5088362;27;20202;-82
2023/07/12 08:52:44;;;;;;;9.07;3.95;;;20.20;99.90;;;;;;5080203;27;20351;-83
2023/07/12 08:55:18;;;;;;;10.05;4.13;;;20.50;99.90;;;;;;5084952;27;20031;-83
2023/07/12 08:57:49;;;;;;;8.20;4.37;;;20.30;99.90;;;;;;5098276;27;20206;-83
2023/07/12 09:00:21;;;;;;;8.68;3.80;;;20.50;99.90;;;;;;5094433;27;20402;-83
2023/07/12 09:02:47;;;;;;;10.23;3.90;;;20.10;99.90;;;;;;5083468;27;20078;-83
2023/07/12 09:05:17;;;;;;;7.88;3.97;;;20.30;99.90;;;;;;5086946;27;20593;-83
2023/07/12 09:07:59;;;;;;;11.30;4.40;;;20.50;99.90;;;;;;5081215;27;20040;-82
2023/07/12 09:10:33;;;;;;;12.25;4.45;;;21.10;99.90;;;;;;5101625;27;20051;-83
2023/07/12 09:13:00;;;;;;;8.55;3.95;;;21.10;99.90;;;;;;5095574;27;21041;-83
2023/07/12 09:15:52;;;;;;;10.68;4.57;;;21.00;99.90;;;;;;5097679;27;20161;-84
2023/07/12 09:18:34;;;;;;;11.55;4.35;;;20.80;99.90;;;;;;5103375;27;20108;-83
2023/07/12 09:21:10;;;;;;;13.65;4.10;;;20.40;99.90;;;;;;5090051;27;20051;-83
2023/07/12 09:23:42;;;;;;;10.15;4.38;;;20.40;99.90;;;;;;5091371;27;20039;-83
2023/07/12 09:26:26;;;;;;;8.45;3.78;;;20.60;99.90;;;;;;5127059;27;20122;-83
2023/07/12 09:29:06;;;;;;;9.65;3.50;;;20.90;99.90;;;;;;5087593;27;20031;-83
2023/07/12 09:31:34;;;;;;;11.00;3.88;;;20.80;99.90;;;;;;5083008;27;20071;-83
2023/07/12 09:34:07;;;;;;;8.65;3.47;;;21.10;99.90;;;;;;5095182;27;20039;-83
2023/07/12 09:36:39;;;;;;;11.90;4.43;;;21.00;99.90;;;;;;5114323;27;20046;-84
2023/07/12 09:39:06;;;;;;;13.32;3.97;;;20.90;99.90;;;;;;5127869;27;20413;-83
2023/07/12 09:41:31;;;;;;;5.95;3.08;;;20.80;99.90;;;;;;5103419;27;20054;-83
2023/07/12 09:43:59;;;;;;;7.18;3.22;;;21.20;99.90;;;;;;5104375;27;21397;-83
2023/07/12 09:46:35;;;;;;;10.32;3.38;;;21.80;99.90;;;;;;5091090;27;20039;-83
2023/07/12 09:49:11;;;;;;;10.02;3.78;;;22.00;99.90;;;;;;5078884;27;20050;-83
2023/07/12 09:52:02;;;;;;;8.57;3.50;;;21.80;99.90;;;;;;5109320;27;20818;-83
2023/07/12 09:54:28;;;;;;;5.57;2.53;;;21.70;99.90;;;;;;5123572;27;20039;-83
2023/07/12 09:57:00;;;;;;;7.50;2.60;;;21.40;99.90;;;;;;5099390;27;20031;-83
2023/07/12 09:59:41;;;;;;;4.32;2.10;;;21.70;99.90;;;;;;5093460;27;20032;-84
2023/07/12 10:02:40;;;;;;;6.93;2.13;;;21.70;99.90;;;;;;5105246;27;20046;-83
2023/07/12 10:05:12;;;;;;;10.13;2.40;;;21.90;99.90;;;;;;5082812;27;20084;-83
2023/07/12 10:07:49;;;;;;;6.13;2.10;;;22.00;99.90;;;;;;5073275;27;20390;-83
2023/07/12 10:10:44;;;;;;;6.22;2.40;;;22.30;99.90;;;;;;5086849;27;20352;-84
2023/07/12 10:13:38;;;;;;;5.68;2.20;;;23.20;99.90;;;;;;5111719;27;20357;-83
2023/07/12 10:16:13;;;;;;;5.22;2.35;;;23.10;99.90;;;;;;5078974;27;20046;-83
2023/07/12 10:18:39;;;;;;;6.53;2.00;;;22.00;99.90;;;;;;5092919;27;20093;-83
2023/07/12 10:21:08;;;;;;;5.55;1.73;;;21.60;99.90;;;;;;5114642;27;20144;-83
2023/07/12 10:23:46;;;;;;;6.13;2.13;;;22.10;99.90;;;;;;5114354;27;20039;-84
2023/07/12 10:26:15;;;;;;;4.25;1.80;;;22.60;99.90;;;;;;5087011;27;20031;-83
2023/07/12 10:28:59;;;;;;;5.43;1.90;;;23.20;99.90;;;;;;5092020;27;20549;-83
2023/07/12 10:31:55;;;;;;;4.03;1.90;;;23.10;99.90;;;;;;5090724;27;20039;-83
2023/07/12 10:34:44;;;;;;;4.40;1.80;;;23.30;99.90;;;;;;5079337;27;20139;-83
2023/07/12 10:37:18;;;;;;;3.90;1.83;;;23.10;99.90;;;;;;5092759;27;20035;-83
2023/07/12 10:39:46;;;;;;;3.47;2.22;;;23.20;99.90;;;;;;5087667;27;20032;-83
2023/07/12 10:42:30;;;;;;;3.42;1.83;;;22.70;99.90;;;;;;5087012;27;20064;-84
2023/07/12 10:44:57;;;;;;;5.82;2.50;;;22.10;99.90;;;;;;5079837;27;20548;-83
2023/07/12 10:47:29;;;;;;;5.30;2.25;;;22.10;99.90;;;;;;5104088;27;20046;-83
2023/07/12 10:50:04;;;;;;;8.13;2.00;;;21.40;99.90;;;;;;5094550;27;20469;-83
2023/07/12 10:52:59;;;;;;;4.07;1.98;;;21.80;99.90;;;;;;5088181;27;20089;-83
2023/07/12 10:55:47;;;;;;;4.88;2.05;;;22.10;99.90;;;;;;5112906;27;20031;-83
2023/07/12 10:58:26;;;;;;;5.30;2.38;;;23.00;99.90;;;;;;5102400;27;20047;-82
2023/07/12 11:00:55;;;;;;;4.65;2.20;;;22.50;99.90;;;;;;5117022;27;20359;-83
2023/07/12 11:03:33;;;;;;;8.95;2.20;;;22.10;99.90;;;;;;5103616;27;20548;-83
2023/07/12 11:06:22;;;;;;;7.30;2.17;;;22.30;99.90;;;;;;5101838;27;20027;-83
2023/07/12 11:09:03;;;;;;;6.28;2.10;;;22.00;99.90;;;;;;5097098;27;20028;-83
2023/07/12 11:11:40;;;;;;;7.07;1.95;;;21.80;99.90;;;;;;5087603;27;20044;-84
2023/07/12 11:14:20;;;;;;;5.00;1.90;;;21.40;99.90;;;;;;5087230;27;20053;-83
2023/07/12 11:16:50;;;;;;;5.70;1.88;;;21.10;99.90;;;;;;5102809;27;20208;-83
2023/07/12 11:19:46;;;;;;;3.78;1.90;;;20.80;99.90;;;;;;5106453;27;20056;-83
2023/07/12 11:22:43;;;;;;;3.75;2.00;;;20.50;99.90;;;;;;5076192;27;20507;-83
2023/07/12 11:25:31;;;;;;;5.05;1.92;;;20.50;99.90;;;;;;5083917;27;20062;-83
2023/07/12 11:28:24;;;;;;;4.03;1.60;;;21.60;99.90;;;;;;5081346;27;20486;-83
2023/07/12 11:31:18;;;;;;;4.35;2.13;;;22.20;99.90;;;;;;5104294;27;20423;-83
2023/07/12 11:33:53;;;;;;;4.18;1.70;;;22.60;99.90;;;;;;5098352;27;20047;-83
2023/07/12 11:36:25;;;;;;;2.90;1.45;;;21.80;99.90;;;;;;5115668;27;20036;-83
2023/07/12 11:38:51;;;;;;;3.75;1.38;;;21.80;99.90;;;;;;5096895;27;20039;-84
2023/07/12 11:41:22;;;;;;;1.90;1.38;;;22.20;99.90;;;;;;5087005;27;20070;-84
2023/07/12 11:43:58;;;;;;;3.55;1.40;;;22.70;99.90;;;;;;5106702;27;20193;-83
2023/07/12 11:46:29;;;;;;;3.92;1.60;;;22.70;99.90;;;;;;5085576;27;20058;-83
2023/07/12 11:49:03;;;;;;;2.78;1.50;;;22.20;99.90;;;;;;5088480;27;20526;-83
2023/07/12 11:51:34;;;;;;;2.50;1.30;;;21.60;99.90;;;;;;5094476;27;20078;-84
2023/07/12 11:54:02;;;;;;;3.65;1.50;;;22.30;99.90;;;;;;5090905;27;20039;-84
2023/07/12 11:56:28;;;;;;;3.38;1.80;;;22.20;99.90;;;;;;5105717;27;20107;-83
2023/07/12 11:58:54;;;;;;;3.63;1.23;;;22.60;99.90;;;;;;5083964;28;20040;-83
2023/07/12 12:01:21;;;;;;;4.82;1.50;;;23.10;99.90;;;;;;5088422;27;20036;-83
2023/07/12 12:03:51;;;;;;;4.22;1.10;;;22.30;99.90;;;;;;5098503;27;20078;-83
2023/07/12 12:06:19;;;;;;;2.55;1.08;;;21.80;99.90;;;;;;5108068;27;20331;-82
2023/07/12 12:08:54;;;;;;;1.95;1.05;;;21.80;99.90;;;;;;5076004;27;20035;-84
2023/07/12 12:11:21;;;;;;;4.40;1.40;;;22.30;99.90;;;;;;5114872;27;20115;-83
2023/07/12 12:13:52;;;;;;;1.65;1.20;;;22.50;99.90;;;;;;5104163;27;20038;-84
2023/07/12 12:16:31;;;;;;;1.60;1.15;;;22.70;99.90;;;;;;5091440;27;20035;-83
2023/07/12 12:19:15;;;;;;;3.65;1.30;;;22.80;99.90;;;;;;5086079;27;20521;-83
2023/07/12 12:21:48;;;;;;;3.65;1.95;;;22.60;99.90;;;;;;5084103;27;20044;-83
2023/07/12 12:24:23;;;;;;;3.67;1.00;;;22.30;99.90;;;;;;5092066;27;20036;-83
2023/07/12 12:26:50;;;;;;;;;;;22.10;99.90;;;;;;5102698;27;20754;-83
2023/07/12 12:29:20;;;;;;;2.25;1.10;;;21.80;99.90;;;;;;5093198;27;19987;-82
2023/07/12 12:32:03;;;;;;;5.22;1.92;;;21.70;99.90;;;;;;5094162;27;20585;-83
2023/07/12 12:34:43;;;;;;;2.05;1.23;;;21.90;99.90;;;;;;5077962;28;20315;-83
2023/07/12 12:37:12;;;;;;;4.53;1.13;;;22.40;99.90;;;;;;5086432;28;20413;-83
2023/07/12 12:39:37;;;;;;;2.72;1.30;;;22.40;99.90;;;;;;5089830;27;20043;-83
2023/07/12 12:42:17;;;;;;;5.88;1.40;;;22.00;99.90;;;;;;5100591;28;20111;-83
2023/07/12 12:44:44;;;;;;;6.20;1.85;;;21.60;99.90;;;;;;5079557;28;20047;-84
2023/07/12 12:47:19;;;;;;;3.28;1.10;;;22.00;99.90;;;;;;5083270;28;20125;-83
2023/07/12 12:49:45;;;;;;;2.22;0.50;;;22.10;99.90;;;;;;5085316;28;20070;-83
2023/07/12 12:52:37;;;;;;;2.28;1.10;;;22.00;99.90;;;;;;5088087;28;20204;-83
2023/07/12 12:55:09;;;;;;;3.35;0.93;;;23.10;99.90;;;;;;5077494;28;20176;-84
2023/07/12 12:57:36;;;;;;;2.00;1.17;;;23.40;99.90;;;;;;5084466;28;20300;-83